sensor_id;sensor_type;location;lat;lon;timestamp;P1;durP1;ratioP1;P2;durP2;ratioP2
77160;SDS011;66135;0.000;0.000;2023-03-26T09:08:05;4.38;;;0.40;;
77160;SDS011;66135;0.000;0.000;2023-03-26T09:38:30;3.22;;;0.38;;
77160;SDS011;66135;0.000;0.000;2023-03-26T09:41:31;2.97;;;0.52;;
77160;SDS011;66135;0.000;0.000;2023-03-26T09:46:53;3.80;;;0.50;;
77160;SDS011;66135;0.000;0.000;2023-03-26T09:49:57;2.85;;;0.32;;
77160;SDS011;66135;0.000;0.000;2023-03-26T09:58:18;7.05;;;0.68;;
77160;SDS011;66135;0.000;0.000;2023-03-26T10:00:58;3.42;;;0.25;;
77160;SDS011;66135;0.000;0.000;2023-03-26T10:03:42;2.70;;;0.55;;
77160;SDS011;66135;0.000;0.000;2023-03-26T10:17:02;2.20;;;0.25;;
77160;SDS011;66135;0.000;0.000;2023-03-26T10:19:58;3.65;;;0.32;;
77160;SDS011;66135;0.000;0.000;2023-03-26T10:22:42;2.92;;;0.47;;
77160;SDS011;66135;0.000;0.000;2023-03-26T10:33:47;3.15;;;0.52;;
77160;SDS011;66135;0.000;0.000;2023-03-26T10:36:26;2.17;;;0.63;;
77160;SDS011;66135;0.000;0.000;2023-03-26T10:42:14;3.22;;;0.20;;
77160;SDS011;66135;0.000;0.000;2023-03-26T10:45:05;2.22;;;0.63;;
77160;SDS011;66135;0.000;0.000;2023-03-26T10:55:45;2.78;;;0.40;;
77160;SDS011;66135;0.000;0.000;2023-03-26T10:58:25;2.65;;;0.28;;
77160;SDS011;66135;0.000;0.000;2023-03-26T11:00:54;3.28;;;0.45;;
77160;SDS011;66135;0.000;0.000;2023-03-26T11:09:11;1.63;;;0.25;;
77160;SDS011;66135;0.000;0.000;2023-03-26T11:17:01;2.13;;;0.22;;
77160;SDS011;66135;0.000;0.000;2023-03-26T11:19:30;2.58;;;0.15;;
77160;SDS011;66135;0.000;0.000;2023-03-26T11:32:19;7.03;;;0.60;;
77160;SDS011;66135;0.000;0.000;2023-03-26T11:35:19;6.07;;;0.28;;
77160;SDS011;66135;0.000;0.000;2023-03-26T11:37:51;6.35;;;0.32;;
77160;SDS011;66135;0.000;0.000;2023-03-26T11:40:26;3.35;;;0.63;;
77160;SDS011;66135;0.000;0.000;2023-03-26T11:43:06;4.03;;;0.28;;
77160;SDS011;66135;0.000;0.000;2023-03-26T11:45:37;3.03;;;0.15;;
77160;SDS011;66135;0.000;0.000;2023-03-26T11:51:20;3.35;;;0.20;;
77160;SDS011;66135;0.000;0.000;2023-03-26T11:54:00;4.07;;;0.20;;
77160;SDS011;66135;0.000;0.000;2023-03-26T11:56:28;4.60;;;0.70;;
77160;SDS011;66135;0.000;0.000;2023-03-26T11:59:02;1.65;;;0.52;;
77160;SDS011;66135;0.000;0.000;2023-03-26T12:01:42;1.60;;;0.35;;
77160;SDS011;66135;0.000;0.000;2023-03-26T12:04:09;1.92;;;0.25;;
77160;SDS011;66135;0.000;0.000;2023-03-26T12:06:49;3.30;;;0.20;;
77160;SDS011;66135;0.000;0.000;2023-03-26T12:09:17;3.08;;;0.40;;
77160;SDS011;66135;0.000;0.000;2023-03-26T12:11:43;2.42;;;0.30;;
77160;SDS011;66135;0.000;0.000;2023-03-26T12:14:12;3.85;;;0.13;;
77160;SDS011;66135;0.000;0.000;2023-03-26T12:19:34;3.78;;;0.13;;
77160;SDS011;66135;0.000;0.000;2023-03-26T12:22:03;2.28;;;0.20;;
77160;SDS011;66135;0.000;0.000;2023-03-26T12:24:33;2.33;;;0.20;;
77160;SDS011;66135;0.000;0.000;2023-03-26T12:27:01;2.80;;;0.43;;
77160;SDS011;66135;0.000;0.000;2023-03-26T12:29:44;4.57;;;0.20;;
77160;SDS011;66135;0.000;0.000;2023-03-26T12:32:15;2.47;;;0.30;;
77160;SDS011;66135;0.000;0.000;2023-03-26T12:37:14;1.35;;;0.20;;
77160;SDS011;66135;0.000;0.000;2023-03-26T12:40:44;1.80;;;0.30;;
77160;SDS011;66135;0.000;0.000;2023-03-26T12:42:57;1.50;;;0.35;;
77160;SDS011;66135;0.000;0.000;2023-03-26T12:45:29;1.13;;;0.30;;
77160;SDS011;66135;0.000;0.000;2023-03-26T12:48:06;1.88;;;0.45;;
77160;SDS011;66135;0.000;0.000;2023-03-26T12:50:45;2.22;;;0.68;;
77160;SDS011;66135;0.000;0.000;2023-03-26T12:56:08;2.97;;;0.68;;
77160;SDS011;66135;0.000;0.000;2023-03-26T12:58:42;3.08;;;0.30;;
77160;SDS011;66135;0.000;0.000;2023-03-26T13:13:04;2.45;;;0.20;;
77160;SDS011;66135;0.000;0.000;2023-03-26T13:15:43;3.78;;;0.20;;
77160;SDS011;66135;0.000;0.000;2023-03-26T13:29:52;2.78;;;0.25;;
77160;SDS011;66135;0.000;0.000;2023-03-26T13:37:54;2.05;;;0.10;;
77160;SDS011;66135;0.000;0.000;2023-03-26T13:40:27;1.50;;;0.10;;
77160;SDS011;66135;0.000;0.000;2023-03-26T13:46:02;1.65;;;0.32;;
77160;SDS011;66135;0.000;0.000;2023-03-26T13:48:35;0.90;;;0.00;;
77160;SDS011;66135;0.000;0.000;2023-03-26T13:51:39;2.05;;;0.10;;
77160;SDS011;66135;0.000;0.000;2023-03-26T13:54:12;2.22;;;0.50;;
77160;SDS011;66135;0.000;0.000;2023-03-26T14:02:43;0.32;;;0.10;;
77160;SDS011;66135;0.000;0.000;2023-03-26T14:07:55;1.52;;;0.45;;
77160;SDS011;66135;0.000;0.000;2023-03-26T14:10:47;0.85;;;0.15;;
77160;SDS011;66135;0.000;0.000;2023-03-26T14:16:26;1.35;;;0.32;;
77160;SDS011;66135;0.000;0.000;2023-03-26T14:35:59;1.08;;;0.35;;
77160;SDS011;66135;0.000;0.000;2023-03-26T14:41:20;0.77;;;0.20;;
77160;SDS011;66135;0.000;0.000;2023-03-26T14:49:31;0.55;;;0.50;;
77160;SDS011;66135;0.000;0.000;2023-03-26T14:55:01;1.20;;;0.30;;
77160;SDS011;66135;0.000;0.000;2023-03-26T15:05:27;1.30;;;0.20;;
77160;SDS011;66135;0.000;0.000;2023-03-26T15:16:33;0.90;;;0.38;;
77160;SDS011;66135;0.000;0.000;2023-03-26T15:19:35;0.68;;;0.20;;
77160;SDS011;66135;0.000;0.000;2023-03-26T15:23:44;0.70;;;0.50;;
77160;SDS011;66135;0.000;0.000;2023-03-26T15:51:06;1.65;;;0.35;;
77160;SDS011;66135;0.000;0.000;2023-03-26T15:54:08;1.20;;;0.50;;
77160;SDS011;66135;0.000;0.000;2023-03-26T16:08:04;0.80;;;0.13;;
77160;SDS011;66135;0.000;0.000;2023-03-26T16:15:42;1.67;;;0.73;;
77160;SDS011;66135;0.000;0.000;2023-03-26T16:18:17;1.88;;;0.50;;
77160;SDS011;66135;0.000;0.000;2023-03-26T16:28:35;4.50;;;0.60;;
77160;SDS011;66135;0.000;0.000;2023-03-26T16:31:30;5.43;;;0.30;;
77160;SDS011;66135;0.000;0.000;2023-03-26T16:41:33;2.72;;;0.65;;
77160;SDS011;66135;0.000;0.000;2023-03-26T17:00:20;13.18;;;2.90;;
77160;SDS011;66135;0.000;0.000;2023-03-26T17:11:29;12.23;;;2.03;;
77160;SDS011;66135;0.000;0.000;2023-03-26T17:14:11;10.32;;;2.20;;
77160;SDS011;66135;0.000;0.000;2023-03-26T17:22:26;13.32;;;2.33;;
77160;SDS011;66135;0.000;0.000;2023-03-26T17:25:20;11.18;;;1.92;;
77160;SDS011;66135;0.000;0.000;2023-03-26T17:33:20;13.00;;;2.22;;
77160;SDS011;66135;0.000;0.000;2023-03-26T17:36:12;11.07;;;1.83;;
77160;SDS011;66135;0.000;0.000;2023-03-26T17:41:08;9.50;;;1.55;;
77160;SDS011;66135;0.000;0.000;2023-03-26T17:46:02;8.80;;;1.48;;
77160;SDS011;66135;0.000;0.000;2023-03-26T17:48:36;8.30;;;1.80;;
77160;SDS011;66135;0.000;0.000;2023-03-26T17:51:34;5.65;;;1.52;;
77160;SDS011;66135;0.000;0.000;2023-03-26T17:57:02;6.72;;;1.80;;
77160;SDS011;66135;0.000;0.000;2023-03-26T17:59:34;4.80;;;1.13;;
77160;SDS011;66135;0.000;0.000;2023-03-26T18:02:02;8.10;;;1.60;;
77160;SDS011;66135;0.000;0.000;2023-03-26T18:18:22;7.68;;;1.17;;
77160;SDS011;66135;0.000;0.000;2023-03-26T18:20:55;8.60;;;1.95;;
77160;SDS011;66135;0.000;0.000;2023-03-26T18:23:40;4.88;;;1.20;;
77160;SDS011;66135;0.000;0.000;2023-03-26T18:26:14;10.00;;;1.70;;
77160;SDS011;66135;0.000;0.000;2023-03-26T18:28:44;8.10;;;1.02;;
77160;SDS011;66135;0.000;0.000;2023-03-26T18:31:18;6.65;;;1.15;;
77160;SDS011;66135;0.000;0.000;2023-03-26T18:33:54;5.32;;;1.90;;
77160;SDS011;66135;0.000;0.000;2023-03-26T18:36:23;6.88;;;1.40;;
77160;SDS011;66135;0.000;0.000;2023-03-26T18:38:54;4.80;;;0.82;;
77160;SDS011;66135;0.000;0.000;2023-03-26T18:41:24;6.95;;;0.90;;
77160;SDS011;66135;0.000;0.000;2023-03-26T18:43:55;4.35;;;1.08;;
77160;SDS011;66135;0.000;0.000;2023-03-26T18:46:25;6.07;;;0.70;;
77160;SDS011;66135;0.000;0.000;2023-03-26T18:48:51;6.00;;;0.93;;
77160;SDS011;66135;0.000;0.000;2023-03-26T18:51:19;6.93;;;1.13;;
77160;SDS011;66135;0.000;0.000;2023-03-26T18:53:59;6.55;;;0.80;;
77160;SDS011;66135;0.000;0.000;2023-03-26T18:58:58;6.72;;;1.83;;
77160;SDS011;66135;0.000;0.000;2023-03-26T19:01:24;5.43;;;0.65;;
77160;SDS011;66135;0.000;0.000;2023-03-26T19:03:54;5.28;;;0.93;;
77160;SDS011;66135;0.000;0.000;2023-03-26T19:06:27;6.35;;;0.93;;
77160;SDS011;66135;0.000;0.000;2023-03-26T19:08:54;4.97;;;0.80;;
77160;SDS011;66135;0.000;0.000;2023-03-26T19:11:21;4.30;;;1.35;;
77160;SDS011;66135;0.000;0.000;2023-03-26T19:13:58;3.90;;;1.15;;
77160;SDS011;66135;0.000;0.000;2023-03-26T19:16:31;4.78;;;0.75;;
77160;SDS011;66135;0.000;0.000;2023-03-26T19:19:01;3.13;;;0.60;;
77160;SDS011;66135;0.000;0.000;2023-03-26T19:21:31;6.47;;;1.15;;
77160;SDS011;66135;0.000;0.000;2023-03-26T19:23:58;4.70;;;1.10;;
77160;SDS011;66135;0.000;0.000;2023-03-26T19:26:24;2.72;;;0.57;;
77160;SDS011;66135;0.000;0.000;2023-03-26T19:31:25;3.83;;;0.63;;
77160;SDS011;66135;0.000;0.000;2023-03-26T19:33:58;3.80;;;1.05;;
77160;SDS011;66135;0.000;0.000;2023-03-26T19:36:28;4.82;;;0.93;;
77160;SDS011;66135;0.000;0.000;2023-03-26T19:41:25;4.38;;;0.60;;
77160;SDS011;66135;0.000;0.000;2023-03-26T19:43:55;3.35;;;0.65;;
77160;SDS011;66135;0.000;0.000;2023-03-26T19:46:24;2.80;;;0.73;;
77160;SDS011;66135;0.000;0.000;2023-03-26T19:48:52;2.30;;;0.63;;
77160;SDS011;66135;0.000;0.000;2023-03-26T19:51:33;2.53;;;0.73;;
77160;SDS011;66135;0.000;0.000;2023-03-26T19:54:03;5.20;;;0.68;;
77160;SDS011;66135;0.000;0.000;2023-03-26T19:56:38;3.95;;;0.60;;
77160;SDS011;66135;0.000;0.000;2023-03-26T19:59:04;2.83;;;0.40;;
77160;SDS011;66135;0.000;0.000;2023-03-26T20:01:30;3.75;;;0.40;;
77160;SDS011;66135;0.000;0.000;2023-03-26T20:06:24;4.45;;;0.88;;
77160;SDS011;66135;0.000;0.000;2023-03-26T20:08:52;3.28;;;0.30;;
77160;SDS011;66135;0.000;0.000;2023-03-26T20:11:19;2.70;;;0.43;;
77160;SDS011;66135;0.000;0.000;2023-03-26T20:13:47;3.40;;;0.75;;
77160;SDS011;66135;0.000;0.000;2023-03-26T20:16:22;2.17;;;0.35;;
77160;SDS011;66135;0.000;0.000;2023-03-26T20:18:49;2.72;;;0.30;;
77160;SDS011;66135;0.000;0.000;2023-03-26T20:23:40;1.88;;;0.73;;
77160;SDS011;66135;0.000;0.000;2023-03-26T20:26:13;4.30;;;0.50;;
77160;SDS011;66135;0.000;0.000;2023-03-26T20:28:40;1.52;;;0.43;;
77160;SDS011;66135;0.000;0.000;2023-03-26T20:31:10;2.40;;;1.10;;
77160;SDS011;66135;0.000;0.000;2023-03-26T20:33:38;3.08;;;0.20;;
77160;SDS011;66135;0.000;0.000;2023-03-26T20:38:29;1.95;;;0.30;;
77160;SDS011;66135;0.000;0.000;2023-03-26T20:40:55;3.63;;;0.38;;
77160;SDS011;66135;0.000;0.000;2023-03-26T20:43:21;3.00;;;0.77;;
77160;SDS011;66135;0.000;0.000;2023-03-26T20:45:48;2.58;;;0.40;;
77160;SDS011;66135;0.000;0.000;2023-03-26T20:48:14;4.53;;;0.65;;
77160;SDS011;66135;0.000;0.000;2023-03-26T20:50:42;2.80;;;0.45;;
77160;SDS011;66135;0.000;0.000;2023-03-26T20:53:10;2.67;;;0.50;;
77160;SDS011;66135;0.000;0.000;2023-03-26T20:55:38;3.40;;;0.40;;
77160;SDS011;66135;0.000;0.000;2023-03-26T20:58:04;2.22;;;0.30;;
77160;SDS011;66135;0.000;0.000;2023-03-26T21:02:56;2.92;;;0.52;;
77160;SDS011;66135;0.000;0.000;2023-03-26T21:05:23;2.33;;;0.52;;
77160;SDS011;66135;0.000;0.000;2023-03-26T21:07:53;1.48;;;0.60;;
77160;SDS011;66135;0.000;0.000;2023-03-26T21:10:23;1.20;;;0.10;;
77160;SDS011;66135;0.000;0.000;2023-03-26T21:12:56;2.65;;;0.28;;
77160;SDS011;66135;0.000;0.000;2023-03-26T21:15:32;2.20;;;0.45;;
77160;SDS011;66135;0.000;0.000;2023-03-26T21:20:23;1.88;;;0.40;;
77160;SDS011;66135;0.000;0.000;2023-03-26T21:30:35;1.33;;;0.30;;
77160;SDS011;66135;0.000;0.000;2023-03-26T21:35:29;1.45;;;0.20;;
77160;SDS011;66135;0.000;0.000;2023-03-26T21:37:55;1.52;;;0.30;;
77160;SDS011;66135;0.000;0.000;2023-03-26T21:40:21;1.58;;;0.32;;
77160;SDS011;66135;0.000;0.000;2023-03-26T21:42:48;3.03;;;0.73;;
77160;SDS011;66135;0.000;0.000;2023-03-26T21:45:15;2.22;;;0.68;;
77160;SDS011;66135;0.000;0.000;2023-03-26T21:47:42;1.90;;;0.20;;
77160;SDS011;66135;0.000;0.000;2023-03-26T21:50:10;2.15;;;0.57;;
77160;SDS011;66135;0.000;0.000;2023-03-26T21:52:37;2.83;;;0.30;;
77160;SDS011;66135;0.000;0.000;2023-03-26T21:55:13;1.35;;;0.30;;
77160;SDS011;66135;0.000;0.000;2023-03-26T21:58:03;1.65;;;0.20;;
77160;SDS011;66135;0.000;0.000;2023-03-26T22:05:57;1.58;;;0.55;;
77160;SDS011;66135;0.000;0.000;2023-03-26T22:08:28;2.22;;;0.25;;
77160;SDS011;66135;0.000;0.000;2023-03-26T22:10:57;1.60;;;0.20;;
77160;SDS011;66135;0.000;0.000;2023-03-26T22:13:22;1.40;;;0.43;;
77160;SDS011;66135;0.000;0.000;2023-03-26T22:18:14;2.25;;;0.40;;
77160;SDS011;66135;0.000;0.000;2023-03-26T22:20:39;2.00;;;0.60;;
77160;SDS011;66135;0.000;0.000;2023-03-26T22:23:07;2.38;;;0.35;;
77160;SDS011;66135;0.000;0.000;2023-03-26T22:27:58;1.95;;;0.13;;
77160;SDS011;66135;0.000;0.000;2023-03-26T22:30:24;1.40;;;0.10;;
77160;SDS011;66135;0.000;0.000;2023-03-26T22:32:51;2.33;;;0.40;;
77160;SDS011;66135;0.000;0.000;2023-03-26T22:37:43;0.73;;;0.10;;
77160;SDS011;66135;0.000;0.000;2023-03-26T22:40:09;1.98;;;0.38;;
77160;SDS011;66135;0.000;0.000;2023-03-26T22:42:39;2.33;;;0.32;;
77160;SDS011;66135;0.000;0.000;2023-03-26T22:45:05;0.95;;;0.10;;
77160;SDS011;66135;0.000;0.000;2023-03-26T22:47:31;2.22;;;0.60;;
77160;SDS011;66135;0.000;0.000;2023-03-26T22:50:00;0.95;;;0.28;;
77160;SDS011;66135;0.000;0.000;2023-03-26T22:52:27;0.90;;;0.10;;
77160;SDS011;66135;0.000;0.000;2023-03-26T22:54:52;1.52;;;0.28;;
77160;SDS011;66135;0.000;0.000;2023-03-26T22:57:18;1.27;;;0.10;;
77160;SDS011;66135;0.000;0.000;2023-03-26T22:59:43;0.98;;;0.30;;
77160;SDS011;66135;0.000;0.000;2023-03-26T23:02:09;0.68;;;0.32;;
77160;SDS011;66135;0.000;0.000;2023-03-26T23:04:36;2.67;;;0.30;;
77160;SDS011;66135;0.000;0.000;2023-03-26T23:07:02;1.77;;;0.20;;
77160;SDS011;66135;0.000;0.000;2023-03-26T23:09:28;1.58;;;0.10;;
77160;SDS011;66135;0.000;0.000;2023-03-26T23:11:53;2.00;;;0.45;;
77160;SDS011;66135;0.000;0.000;2023-03-26T23:14:20;1.45;;;0.35;;
77160;SDS011;66135;0.000;0.000;2023-03-26T23:16:45;1.15;;;0.10;;
77160;SDS011;66135;0.000;0.000;2023-03-26T23:19:11;0.80;;;0.10;;
77160;SDS011;66135;0.000;0.000;2023-03-26T23:21:37;2.78;;;0.68;;
77160;SDS011;66135;0.000;0.000;2023-03-26T23:24:02;1.63;;;0.10;;
77160;SDS011;66135;0.000;0.000;2023-03-26T23:26:28;2.40;;;0.25;;
77160;SDS011;66135;0.000;0.000;2023-03-26T23:28:57;2.17;;;0.22;;
77160;SDS011;66135;0.000;0.000;2023-03-26T23:33:49;0.85;;;0.10;;
77160;SDS011;66135;0.000;0.000;2023-03-26T23:36:15;2.08;;;0.30;;
77160;SDS011;66135;0.000;0.000;2023-03-26T23:38:42;1.75;;;0.30;;
77160;SDS011;66135;0.000;0.000;2023-03-26T23:41:10;1.20;;;0.50;;
77160;SDS011;66135;0.000;0.000;2023-03-26T23:43:40;0.98;;;0.30;;
77160;SDS011;66135;0.000;0.000;2023-03-26T23:48:34;1.10;;;0.22;;
77160;SDS011;66135;0.000;0.000;2023-03-26T23:51:00;1.27;;;0.22;;
77160;SDS011;66135;0.000;0.000;2023-03-26T23:53:26;0.50;;;0.10;;
77160;SDS011;66135;0.000;0.000;2023-03-26T23:55:53;1.67;;;0.13;;
77160;SDS011;66135;0.000;0.000;2023-03-26T23:58:20;2.67;;;0.20;;
